Time;durP1;ratioP1;P1;durP2;ratioP2;P2;SDS_P1;SDS_P2;PMS_P1;PMS_P2;Temp;Humidity;BMP_temperature;BMP_pressure;BME280_temperature;BME280_humidity;BME280_pressure;Samples;Min_cycle;Max_cycle;Signal;HPM_P1;HPM_P2
2022/04/21 00:00:09;;;;;;;0.10;0.10;;;;;;;;;;5074064;28;20028;-73
2022/04/21 00:02:36;;;;;;;0.13;0.13;;;;;;;;;;5073796;28;20105;-72
2022/04/21 00:05:02;;;;;;;0.10;0.10;;;;;;;;;;5072042;28;20020;-72
2022/04/21 00:07:28;;;;;;;0.10;0.10;;;;;;;;;;5071495;28;20162;-77
2022/04/21 00:09:54;;;;;;;0.10;0.10;;;;;;;;;;5074290;28;20388;-76
2022/04/21 00:12:20;;;;;;;0.10;0.10;;;;;;;;;;5074022;28;20020;-73
2022/04/21 00:14:46;;;;;;;0.10;0.10;;;;;;;;;;5073503;28;20028;-74
2022/04/21 00:17:12;;;;;;;0.10;0.10;;;;;;;;;;5073666;28;20031;-76
2022/04/21 00:19:38;;;;;;;0.10;0.10;;;;;;;;;;5072123;28;20123;-77
2022/04/21 00:24:50;;;;;;;0.17;0.17;;;;;;;;;;5073354;28;20074;-76
2022/04/21 00:27:16;;;;;;;0.10;0.10;;;;;;;;;;5073552;28;20103;-76
2022/04/21 00:29:46;;;;;;;0.20;0.20;;;;;;;;;;5072012;28;20028;-71
2022/04/21 00:32:12;;;;;;;0.10;0.10;;;;;;;;;;5072133;28;20124;-73
2022/04/21 00:34:38;;;;;;;0.10;0.10;;;;;;;;;;5071035;28;20032;-74
2022/04/21 00:37:04;;;;;;;0.20;0.20;;;;;;;;;;5072447;28;20387;-74
2022/04/21 00:39:31;;;;;;;0.10;0.10;;;;;;;;;;5071045;28;20033;-76
2022/04/21 00:42:00;;;;;;;0.10;0.10;;;;;;;;;;5071520;28;20118;-76
2022/04/21 00:44:27;;;;;;;0.10;0.10;;;;;;;;;;5070687;28;20029;-76
2022/04/21 00:46:53;;;;;;;0.10;0.10;;;;;;;;;;5071032;28;20051;-74
2022/04/21 00:49:21;;;;;;;0.13;0.13;;;;;;;;;;5070686;28;20136;-74
2022/04/21 00:51:47;;;;;;;0.20;0.20;;;;;;;;;;5070860;28;20036;-74
2022/04/21 00:54:13;;;;;;;0.10;0.10;;;;;;;;;;5073012;28;20028;-72
2022/04/21 00:56:42;;;;;;;0.10;0.10;;;;;;;;;;5072791;28;20159;-74
2022/04/21 00:59:08;;;;;;;0.10;0.10;;;;;;;;;;5071458;28;20040;-73
2022/04/21 01:04:19;;;;;;;0.10;0.10;;;;;;;;;;5072522;28;20396;-76
2022/04/21 01:06:45;;;;;;;0.20;0.20;;;;;;;;;;5071350;28;21058;-75
2022/04/21 01:09:11;;;;;;;0.10;0.10;;;;;;;;;;5072799;28;20031;-76
2022/04/21 01:11:38;;;;;;;0.10;0.10;;;;;;;;;;5071086;28;20021;-75
2022/04/21 01:14:04;;;;;;;0.10;0.10;;;;;;;;;;5072685;28;20548;-76
2022/04/21 01:16:30;;;;;;;0.10;0.10;;;;;;;;;;5072332;28;20024;-75
2022/04/21 01:18:56;;;;;;;0.10;0.10;;;;;;;;;;5072677;28;20036;-75
2022/04/21 01:21:22;;;;;;;0.10;0.10;;;;;;;;;;5072762;28;20028;-74
2022/04/21 01:23:48;;;;;;;0.20;0.20;;;;;;;;;;5072157;28;20028;-76
2022/04/21 01:26:15;;;;;;;0.17;0.17;;;;;;;;;;5071121;28;20519;-75
2022/04/21 01:28:41;;;;;;;0.20;0.20;;;;;;;;;;5072013;28;20024;-77
2022/04/21 01:31:07;;;;;;;0.20;0.20;;;;;;;;;;5072266;28;20035;-77
2022/04/21 01:33:33;;;;;;;0.10;0.10;;;;;;;;;;5071995;28;20020;-76
2022/04/21 01:35:59;;;;;;;0.10;0.10;;;;;;;;;;5072190;28;20020;-77
2022/04/21 01:41:11;;;;;;;0.10;0.10;;;;;;;;;;5072016;28;20545;-78
2022/04/21 01:43:37;;;;;;;0.10;0.10;;;;;;;;;;5071795;28;20028;-77
2022/04/21 01:46:04;;;;;;;0.10;0.10;;;;;;;;;;5072071;28;20052;-77
2022/04/21 01:48:30;;;;;;;0.10;0.10;;;;;;;;;;5071595;28;20037;-76
2022/04/21 01:50:56;;;;;;;0.10;0.10;;;;;;;;;;5071961;28;20092;-76
2022/04/21 01:53:22;;;;;;;0.10;0.10;;;;;;;;;;5072133;28;20039;-77
2022/04/21 01:55:48;;;;;;;0.10;0.10;;;;;;;;;;5071638;28;20059;-77
2022/04/21 01:58:14;;;;;;;0.10;0.10;;;;;;;;;;5071675;28;20028;-75
2022/04/21 02:00:40;;;;;;;0.20;0.20;;;;;;;;;;5071595;28;20031;-75
2022/04/21 02:03:06;;;;;;;0.20;0.20;;;;;;;;;;5070621;28;20033;-74
2022/04/21 02:05:33;;;;;;;0.10;0.10;;;;;;;;;;5071468;28;20510;-75
2022/04/21 02:08:00;;;;;;;0.10;0.10;;;;;;;;;;5070447;28;20056;-76
2022/04/21 02:10:26;;;;;;;0.20;0.20;;;;;;;;;;5071372;28;20070;-76
2022/04/21 02:12:52;;;;;;;0.10;0.10;;;;;;;;;;5070483;28;20103;-76
2022/04/21 02:15:18;;;;;;;0.10;0.10;;;;;;;;;;5071492;28;20017;-77
2022/04/21 02:17:45;;;;;;;0.20;0.20;;;;;;;;;;5070733;28;20028;-76
2022/04/21 02:20:14;;;;;;;0.10;0.10;;;;;;;;;;5071384;28;20074;-75
2022/04/21 02:22:40;;;;;;;0.10;0.10;;;;;;;;;;5069782;28;20028;-75
2022/04/21 02:25:07;;;;;;;0.10;0.10;;;;;;;;;;5071442;28;20070;-76
2022/04/21 02:27:33;;;;;;;0.10;0.10;;;;;;;;;;5069759;28;20021;-76
2022/04/21 02:29:59;;;;;;;0.10;0.10;;;;;;;;;;5071346;28;20028;-76
2022/04/21 02:32:25;;;;;;;0.10;0.10;;;;;;;;;;5070977;28;20437;-75
2022/04/21 02:34:54;;;;;;;0.10;0.10;;;;;;;;;;5071529;28;20036;-77
2022/04/21 02:37:23;;;;;;;0.20;0.20;;;;;;;;;;5071433;28;20024;-78
2022/04/21 02:39:50;;;;;;;0.20;0.20;;;;;;;;;;5069743;28;20506;-76
2022/04/21 02:42:16;;;;;;;0.10;0.10;;;;;;;;;;5071199;28;20060;-77
2022/04/21 02:44:42;;;;;;;0.10;0.10;;;;;;;;;;5070902;28;20028;-76
2022/04/21 02:47:09;;;;;;;0.10;0.10;;;;;;;;;;5069681;28;20029;-77
2022/04/21 02:49:35;;;;;;;0.20;0.20;;;;;;;;;;5069455;28;20112;-77
2022/04/21 02:52:05;;;;;;;0.10;0.10;;;;;;;;;;5071097;28;20021;-78
2022/04/21 02:57:20;;;;;;;0.10;0.10;;;;;;;;;;5071248;28;20086;-76
2022/04/21 02:59:46;;;;;;;0.10;0.10;;;;;;;;;;5069382;28;20407;-77
2022/04/21 03:02:13;;;;;;;0.20;0.20;;;;;;;;;;5070684;28;20396;-77
2022/04/21 03:04:38;;;;;;;0.10;0.10;;;;;;;;;;5069266;28;20031;-77
2022/04/21 03:07:05;;;;;;;0.10;0.10;;;;;;;;;;5071001;28;20092;-75
2022/04/21 03:09:32;;;;;;;0.10;0.10;;;;;;;;;;5069336;28;20020;-74
2022/04/21 03:12:04;;;;;;;0.10;0.10;;;;;;;;;;5070866;28;20059;-76
2022/04/21 03:14:31;;;;;;;0.10;0.10;;;;;;;;;;5069271;28;20465;-76
2022/04/21 03:16:57;;;;;;;0.10;0.10;;;;;;;;;;5070938;28;20546;-76
2022/04/21 03:19:23;;;;;;;0.10;0.10;;;;;;;;;;5069730;28;20037;-76
2022/04/21 03:24:35;;;;;;;0.10;0.10;;;;;;;;;;5069457;28;20040;-77
2022/04/21 03:27:02;;;;;;;0.10;0.10;;;;;;;;;;5070488;28;20021;-76
2022/04/21 03:29:29;;;;;;;0.20;0.20;;;;;;;;;;5070533;28;20028;-76
2022/04/21 03:31:54;;;;;;;0.10;0.10;;;;;;;;;;5074322;28;20495;-76
2022/04/21 03:34:21;;;;;;;0.10;0.10;;;;;;;;;;5074684;28;20021;-77
2022/04/21 03:36:50;;;;;;;0.20;0.20;;;;;;;;;;5072848;28;20495;-76
2022/04/21 03:39:17;;;;;;;0.20;0.20;;;;;;;;;;5072914;28;20043;-75
2022/04/21 03:41:43;;;;;;;0.10;0.10;;;;;;;;;;5073991;28;20054;-76
2022/04/21 03:44:11;;;;;;;0.10;0.10;;;;;;;;;;5073746;28;20021;-76
2022/04/21 03:46:38;;;;;;;0.20;0.20;;;;;;;;;;5077202;28;20392;-75
2022/04/21 03:49:04;;;;;;;0.10;0.10;;;;;;;;;;5072761;28;20031;-76
2022/04/21 03:51:31;;;;;;;0.10;0.10;;;;;;;;;;5074196;28;20032;-75
2022/04/21 03:53:57;;;;;;;0.10;0.10;;;;;;;;;;5073824;28;20025;-75
2022/04/21 03:56:23;;;;;;;0.10;0.10;;;;;;;;;;5073019;28;20048;-76
2022/04/21 03:58:49;;;;;;;0.10;0.10;;;;;;;;;;5072580;28;20067;-76
2022/04/21 04:01:15;;;;;;;0.15;0.15;;;;;;;;;;5076226;28;20021;-76
2022/04/21 04:03:42;;;;;;;0.10;0.10;;;;;;;;;;5072415;28;20584;-75
2022/04/21 04:10:51;;;;;;;0.10;0.10;;;;;;;;;;5073921;28;20480;-76
2022/04/21 04:11:39;;;;;;;0.10;0.10;;;;;;;;;;5073507;28;20291;-74
2022/04/21 04:14:05;;;;;;;0.20;0.20;;;;;;;;;;5072755;28;20119;-76
2022/04/21 04:16:35;;;;;;;0.10;0.10;;;;;;;;;;5074065;28;20081;-75
2022/04/21 04:19:03;;;;;;;0.10;0.10;;;;;;;;;;5073687;28;20105;-76
2022/04/21 04:21:30;;;;;;;0.10;0.10;;;;;;;;;;5072451;28;20380;-75
2022/04/21 04:23:56;;;;;;;0.10;0.10;;;;;;;;;;5073466;28;20024;-73
2022/04/21 04:26:22;;;;;;;0.10;0.10;;;;;;;;;;5077072;28;20025;-76
2022/04/21 04:28:49;;;;;;;0.10;0.10;;;;;;;;;;5085005;28;20115;-74
2022/04/21 04:31:15;;;;;;;0.10;0.10;;;;;;;;;;5093624;28;20017;-77
2022/04/21 04:33:42;;;;;;;0.17;0.17;;;;;;;;;;5075979;28;20028;-76
2022/04/21 04:36:10;;;;;;;0.10;0.10;;;;;;;;;;5080463;28;20035;-77
2022/04/21 04:38:37;;;;;;;0.13;0.13;;;;;;;;;;5093187;28;20035;-76
2022/04/21 04:42:16;;;;;;;0.10;0.10;;;;;;;;;;5093162;28;20032;-76
2022/04/21 04:43:48;;;;;;;0.20;0.20;;;;;;;;;;5093132;28;20078;-76
2022/04/21 04:48:59;;;;;;;0.15;0.15;;;;;;;;;;5093545;28;20051;-77
2022/04/21 04:51:26;;;;;;;0.10;0.10;;;;;;;;;;5081915;28;20369;-75
2022/04/21 04:53:53;;;;;;;0.10;0.10;;;;;;;;;;5071634;28;20028;-76
2022/04/21 04:56:20;;;;;;;0.10;0.10;;;;;;;;;;5078853;28;20077;-77
2022/04/21 04:58:46;;;;;;;0.20;0.20;;;;;;;;;;5092434;28;20122;-76
2022/04/21 05:01:12;;;;;;;0.10;0.10;;;;;;;;;;5083118;28;20108;-77
2022/04/21 05:03:39;;;;;;;0.08;0.08;;;;;;;;;;5072615;28;20025;-76
2022/04/21 05:06:05;;;;;;;0.20;0.20;;;;;;;;;;5074605;28;20095;-76
2022/04/21 05:08:31;;;;;;;0.10;0.10;;;;;;;;;;5078817;28;20027;-76
2022/04/21 05:10:57;;;;;;;0.10;0.10;;;;;;;;;;5086977;28;20085;-73
2022/04/21 05:13:23;;;;;;;0.10;0.10;;;;;;;;;;5091921;28;20028;-78
2022/04/21 05:15:49;;;;;;;0.10;0.10;;;;;;;;;;5072418;28;20028;-75
2022/04/21 05:18:16;;;;;;;0.10;0.10;;;;;;;;;;5070845;28;20060;-78
2022/04/21 05:20:42;;;;;;;0.10;0.10;;;;;;;;;;5073351;28;20055;-77
2022/04/21 05:23:10;;;;;;;0.10;0.10;;;;;;;;;;5072467;28;20162;-77
2022/04/21 05:25:37;;;;;;;0.10;0.10;;;;;;;;;;5080077;28;20049;-78
2022/04/21 05:28:03;;;;;;;4.72;2.83;;;;;;;;;;5091309;28;20880;-78
2022/04/21 05:33:15;;;;;;;0.20;0.20;;;;;;;;;;5079517;28;20059;-77
2022/04/21 05:35:42;;;;;;;0.10;0.10;;;;;;;;;;5082500;28;20020;-79
2022/04/21 05:38:08;;;;;;;0.10;0.10;;;;;;;;;;5076102;28;20071;-77
2022/04/21 05:40:34;;;;;;;0.10;0.10;;;;;;;;;;5092202;28;20024;-77
2022/04/21 05:43:04;;;;;;;0.15;0.15;;;;;;;;;;5090216;28;20485;-78
2022/04/21 05:45:30;;;;;;;0.20;0.20;;;;;;;;;;5078946;28;20114;-77
2022/04/21 05:47:57;;;;;;;0.10;0.10;;;;;;;;;;5091944;28;20514;-77
2022/04/21 05:50:23;;;;;;;0.10;0.10;;;;;;;;;;5091048;28;20021;-76
2022/04/21 05:52:52;;;;;;;0.68;0.68;;;;;;;;;;5091111;28;20032;-78
2022/04/21 05:55:18;;;;;;;0.20;0.20;;;;;;;;;;5092077;28;20455;-76
2022/04/21 05:57:45;;;;;;;0.17;0.17;;;;;;;;;;5091645;28;20032;-75
2022/04/21 06:00:11;;;;;;;0.15;0.15;;;;;;;;;;5089574;28;20032;-77
2022/04/21 06:02:37;;;;;;;0.10;0.10;;;;;;;;;;5077510;28;20033;-76
2022/04/21 06:05:04;;;;;;;0.10;0.10;;;;;;;;;;5077176;28;20400;-78
2022/04/21 06:07:30;;;;;;;0.10;0.10;;;;;;;;;;5080574;28;20028;-77
2022/04/21 06:09:56;;;;;;;0.10;0.10;;;;;;;;;;5091352;28;20495;-76
2022/04/21 06:12:25;;;;;;;0.10;0.10;;;;;;;;;;5091695;28;20028;-78
2022/04/21 06:14:52;;;;;;;0.10;0.10;;;;;;;;;;5091466;28;20089;-77
2022/04/21 06:17:18;;;;;;;0.10;0.10;;;;;;;;;;5091677;28;20538;-77
2022/04/21 06:19:44;;;;;;;0.10;0.10;;;;;;;;;;5089900;28;20510;-76
2022/04/21 06:22:10;;;;;;;0.10;0.10;;;;;;;;;;5091530;28;20463;-76
2022/04/21 06:24:36;;;;;;;0.10;0.10;;;;;;;;;;5091387;28;20035;-75
2022/04/21 06:27:03;;;;;;;0.10;0.10;;;;;;;;;;5090255;28;20437;-76
2022/04/21 06:29:30;;;;;;;0.13;0.13;;;;;;;;;;5091772;28;20081;-75
2022/04/21 06:31:56;;;;;;;0.10;0.10;;;;;;;;;;5091392;28;20020;-76
2022/04/21 06:34:25;;;;;;;0.10;0.10;;;;;;;;;;5091299;28;20031;-76
2022/04/21 06:36:51;;;;;;;0.10;0.10;;;;;;;;;;5089536;28;20416;-76
2022/04/21 06:39:17;;;;;;;0.10;0.10;;;;;;;;;;5091166;28;20085;-78
2022/04/21 06:41:43;;;;;;;0.10;0.10;;;;;;;;;;5089816;28;20028;-77
2022/04/21 06:49:38;;;;;;;0.13;0.13;;;;;;;;;;5091160;28;20528;-78
2022/04/21 06:52:04;;;;;;;0.10;0.10;;;;;;;;;;5091337;28;20024;-76
2022/04/21 06:54:30;;;;;;;0.10;0.10;;;;;;;;;;5091663;28;20483;-77
2022/04/21 06:56:56;;;;;;;0.10;0.10;;;;;;;;;;5091489;28;20031;-74
2022/04/21 06:59:22;;;;;;;0.10;0.10;;;;;;;;;;5091136;28;20483;-73
2022/04/21 07:01:48;;;;;;;0.10;0.10;;;;;;;;;;5091047;28;20024;-75
2022/04/21 07:04:15;;;;;;;0.10;0.10;;;;;;;;;;5092385;28;20028;-72
2022/04/21 07:06:41;;;;;;;0.10;0.10;;;;;;;;;;5093359;28;20021;-73
2022/04/21 07:09:07;;;;;;;0.17;0.17;;;;;;;;;;5072866;28;20021;-74
2022/04/21 07:11:33;;;;;;;0.10;0.10;;;;;;;;;;5071499;28;20444;-72
2022/04/21 07:13:59;;;;;;;0.20;0.20;;;;;;;;;;5072265;28;20484;-73
2022/04/21 07:16:25;;;;;;;0.20;0.20;;;;;;;;;;5073628;28;20055;-72
2022/04/21 07:18:51;;;;;;;0.10;0.10;;;;;;;;;;5073160;28;20037;-72
2022/04/21 07:21:17;;;;;;;0.10;0.10;;;;;;;;;;5073318;28;20077;-73
2022/04/21 07:23:43;;;;;;;0.10;0.10;;;;;;;;;;5073006;28;20020;-72
2022/04/21 07:26:09;;;;;;;0.10;0.10;;;;;;;;;;5073109;28;20504;-72
2022/04/21 07:28:36;;;;;;;0.10;0.10;;;;;;;;;;5072809;28;20021;-74
2022/04/21 07:31:02;;;;;;;0.10;0.10;;;;;;;;;;5074240;28;20021;-73
2022/04/21 07:33:28;;;;;;;0.20;0.20;;;;;;;;;;5074899;28;20047;-79
2022/04/21 07:35:54;;;;;;;0.10;0.10;;;;;;;;;;5074255;28;20032;-74
2022/04/21 07:38:21;;;;;;;0.20;0.20;;;;;;;;;;5073009;28;20020;-73
2022/04/21 07:40:50;;;;;;;0.10;0.10;;;;;;;;;;5074227;28;20020;-74
2022/04/21 07:43:16;;;;;;;0.10;0.10;;;;;;;;;;5072968;28;20070;-73
2022/04/21 07:45:44;;;;;;;0.10;0.10;;;;;;;;;;5074114;28;20029;-78
2022/04/21 07:48:10;;;;;;;0.10;0.10;;;;;;;;;;5074181;28;20373;-75
2022/04/21 07:50:36;;;;;;;0.10;0.10;;;;;;;;;;5072796;28;20036;-76
2022/04/21 07:53:15;;;;;;;0.10;0.10;;;;;;;;;;5072545;28;20028;-73
2022/04/21 07:55:42;;;;;;;0.10;0.10;;;;;;;;;;5072218;28;20021;-72
2022/04/21 07:58:09;;;;;;;0.10;0.10;;;;;;;;;;5072353;28;20028;-74
2022/04/21 08:00:36;;;;;;;0.10;0.10;;;;;;;;;;5070891;28;20023;-75
2022/04/21 08:03:03;;;;;;;0.10;0.10;;;;;;;;;;5072674;28;20517;-75
2022/04/21 08:05:29;;;;;;;0.10;0.10;;;;;;;;;;5071663;28;20069;-75
2022/04/21 08:07:57;;;;;;;0.10;0.10;;;;;;;;;;5072611;28;20056;-74
2022/04/21 08:10:24;;;;;;;0.10;0.10;;;;;;;;;;5073570;28;20035;-78
2022/04/21 08:12:53;;;;;;;0.13;0.13;;;;;;;;;;5073043;28;20085;-80
2022/04/21 08:15:24;;;;;;;0.10;0.10;;;;;;;;;;5073881;28;20032;-81
2022/04/21 08:17:51;;;;;;;0.20;0.20;;;;;;;;;;5073324;28;20464;-84
2022/04/21 08:20:17;;;;;;;0.10;0.10;;;;;;;;;;5072706;28;20492;-76
2022/04/21 08:22:44;;;;;;;0.17;0.17;;;;;;;;;;5072376;28;20033;-74
2022/04/21 08:33:24;;;;;;;0.10;0.10;;;;;;;;;;5073625;28;20082;-75
2022/04/21 08:35:57;;;;;;;5.70;5.47;;;;;;;;;;5072009;28;20111;-75
2022/04/21 08:38:27;;;;;;;0.10;0.10;;;;;;;;;;5072127;28;20115;-74
2022/04/21 08:40:54;;;;;;;0.10;0.10;;;;;;;;;;5069845;28;20539;-76
2022/04/21 08:43:21;;;;;;;0.10;0.10;;;;;;;;;;5072252;28;20100;-76
2022/04/21 08:45:48;;;;;;;0.10;0.10;;;;;;;;;;5071655;28;20491;-75
2022/04/21 08:48:16;;;;;;;0.20;0.20;;;;;;;;;;5071814;28;20037;-73
2022/04/21 08:50:42;;;;;;;0.10;0.10;;;;;;;;;;5072920;28;20365;-74
2022/04/21 08:53:10;;;;;;;0.10;0.10;;;;;;;;;;5073129;28;20082;-74
2022/04/21 08:55:36;;;;;;;0.15;0.15;;;;;;;;;;5071440;28;20495;-74
2022/04/21 08:58:03;;;;;;;0.10;0.10;;;;;;;;;;5070416;28;20115;-75
2022/04/21 09:00:32;;;;;;;0.10;0.10;;;;;;;;;;5071593;28;20099;-76
2022/04/21 09:02:59;;;;;;;0.10;0.10;;;;;;;;;;5070932;28;20024;-77
2022/04/21 09:05:29;;;;;;;0.10;0.10;;;;;;;;;;5072978;28;20044;-75
2022/04/21 09:07:55;;;;;;;0.10;0.10;;;;;;;;;;5070995;28;20085;-77
2022/04/21 09:10:21;;;;;;;0.10;0.10;;;;;;;;;;5072794;28;20024;-76
2022/04/21 09:12:50;;;;;;;0.10;0.10;;;;;;;;;;5071795;28;20028;-74
2022/04/21 09:15:17;;;;;;;0.10;0.10;;;;;;;;;;5072004;28;20109;-76
2022/04/21 09:17:45;;;;;;;0.10;0.10;;;;;;;;;;5072264;28;20108;-77
2022/04/21 09:20:11;;;;;;;0.10;0.10;;;;;;;;;;5071316;28;20040;-77
2022/04/21 09:22:41;;;;;;;0.17;0.17;;;;;;;;;;5069525;28;20048;-77
2022/04/21 09:25:07;;;;;;;0.17;0.17;;;;;;;;;;5069711;28;20058;-77
2022/04/21 09:27:43;;;;;;;0.10;0.10;;;;;;;;;;5068934;28;20028;-76
2022/04/21 09:30:13;;;;;;;0.20;0.20;;;;;;;;;;5071253;28;20035;-79
2022/04/21 09:32:51;;;;;;;0.10;0.10;;;;;;;;;;5070931;28;20021;-77
2022/04/21 09:35:17;;;;;;;0.10;0.10;;;;;;;;;;5071732;28;20032;-77
2022/04/21 09:37:48;;;;;;;0.10;0.10;;;;;;;;;;5071925;28;20413;-79
2022/04/21 09:40:15;;;;;;;0.10;0.10;;;;;;;;;;5072183;28;20358;-75
2022/04/21 09:42:41;;;;;;;0.10;0.10;;;;;;;;;;5071869;28;20153;-74
2022/04/21 09:47:56;;;;;;;0.10;0.10;;;;;;;;;;5071951;28;20718;-75
2022/04/21 09:50:26;;;;;;;0.10;0.10;;;;;;;;;;5071946;28;20040;-76
2022/04/21 09:52:55;;;;;;;0.10;0.10;;;;;;;;;;5070386;28;20052;-76
2022/04/21 09:55:26;;;;;;;0.10;0.10;;;;;;;;;;5072160;28;20400;-76
2022/04/21 09:57:52;;;;;;;0.10;0.10;;;;;;;;;;5070260;28;20476;-78
2022/04/21 10:00:21;;;;;;;0.10;0.10;;;;;;;;;;5071826;28;20400;-75
2022/04/21 10:02:50;;;;;;;0.10;0.10;;;;;;;;;;5071555;28;20032;-80
2022/04/21 10:05:17;;;;;;;0.10;0.10;;;;;;;;;;5071714;28;20029;-76
2022/04/21 10:07:44;;;;;;;0.10;0.10;;;;;;;;;;5070109;28;20021;-76
2022/04/21 10:10:10;;;;;;;0.10;0.10;;;;;;;;;;5071681;28;20111;-77
2022/04/21 10:12:36;;;;;;;0.20;0.20;;;;;;;;;;5071415;28;20028;-76
2022/04/21 10:15:04;;;;;;;0.10;0.10;;;;;;;;;;5071959;28;20032;-75
2022/04/21 10:17:30;;;;;;;2.10;2.00;;;;;;;;;;5071140;28;20103;-77
2022/04/21 10:19:56;;;;;;;0.10;0.10;;;;;;;;;;5071200;28;20125;-77
2022/04/21 10:22:22;;;;;;;0.10;0.10;;;;;;;;;;5071397;28;20108;-76
2022/04/21 10:24:48;;;;;;;0.10;0.10;;;;;;;;;;5069730;28;20484;-76
2022/04/21 10:27:33;;;;;;;0.10;0.10;;;;;;;;;;5071388;28;20043;-76
2022/04/21 10:29:59;;;;;;;0.10;0.10;;;;;;;;;;5069760;28;20059;-77
2022/04/21 10:32:45;;;;;;;0.10;0.10;;;;;;;;;;5069892;28;20035;-78
2022/04/21 10:35:38;;;;;;;0.13;0.13;;;;;;;;;;5051481;28;20025;-77
2022/04/21 10:38:14;;;;;;;0.10;0.10;;;;;;;;;;5034491;28;20400;-77
2022/04/21 10:41:02;;;;;;;0.15;0.15;;;;;;;;;;5066261;28;20464;-76
2022/04/21 10:43:57;;;;;;;0.10;0.10;;;;;;;;;;5071145;28;20064;-77
2022/04/21 10:46:32;;;;;;;0.10;0.10;;;;;;;;;;5053831;28;20089;-77
2022/04/21 10:48:59;;;;;;;0.10;0.10;;;;;;;;;;5069402;28;20111;-76
2022/04/21 10:57:12;;;;;;;0.10;0.10;;;;;;;;;;5068475;28;20044;-77
2022/04/21 10:57:29;;;;;;;0.10;0.10;;;;;;;;;;5051464;28;20120;-77
2022/04/21 11:00:03;;;;;;;0.10;0.10;;;;;;;;;;5049391;28;20063;-77
2022/04/21 11:02:39;;;;;;;0.10;0.10;;;;;;;;;;5056719;28;20024;-77
2022/04/21 11:05:20;;;;;;;0.10;0.10;;;;;;;;;;5071126;28;20035;-77
2022/04/21 11:07:53;;;;;;;0.10;0.10;;;;;;;;;;5068948;28;20446;-77
2022/04/21 11:10:26;;;;;;;0.20;0.20;;;;;;;;;;5069352;28;20031;-78
2022/04/21 11:12:52;;;;;;;0.10;0.10;;;;;;;;;;5067189;28;20025;-78
2022/04/21 11:15:31;;;;;;;0.20;0.20;;;;;;;;;;5069567;28;20024;-78
2022/04/21 11:18:01;;;;;;;0.10;0.10;;;;;;;;;;5071693;28;20029;-78
2022/04/21 11:20:27;;;;;;;0.10;0.10;;;;;;;;;;5068268;28;20035;-75
2022/04/21 11:22:54;;;;;;;0.10;0.10;;;;;;;;;;5067674;28;20392;-77
2022/04/21 11:25:20;;;;;;;0.10;0.10;;;;;;;;;;5069190;28;20086;-76
2022/04/21 11:27:46;;;;;;;0.10;0.10;;;;;;;;;;5067683;28;20476;-78
2022/04/21 11:30:13;;;;;;;0.10;0.10;;;;;;;;;;5068710;28;20027;-77
2022/04/21 11:32:40;;;;;;;0.10;0.10;;;;;;;;;;5068893;28;20063;-76
2022/04/21 11:35:12;;;;;;;0.10;0.10;;;;;;;;;;5069038;28;20013;-77
2022/04/21 11:37:57;;;;;;;0.10;0.10;;;;;;;;;;5068771;28;20043;-77
2022/04/21 11:40:28;;;;;;;0.10;0.10;;;;;;;;;;5050126;28;20033;-83
2022/04/21 11:42:55;;;;;;;0.17;0.17;;;;;;;;;;5048963;28;20079;-77
2022/04/21 11:45:22;;;;;;;0.10;0.10;;;;;;;;;;5050590;28;20029;-77
2022/04/21 11:47:48;;;;;;;0.10;0.10;;;;;;;;;;5050016;28;20040;-77
2022/04/21 11:50:22;;;;;;;0.10;0.10;;;;;;;;;;5065968;28;20480;-77
2022/04/21 11:52:52;;;;;;;0.10;0.10;;;;;;;;;;5066438;28;20032;-76
2022/04/21 11:55:19;;;;;;;0.10;0.10;;;;;;;;;;5072742;28;20100;-77
2022/04/21 11:57:45;;;;;;;0.10;0.10;;;;;;;;;;5072393;28;20455;-76
2022/04/21 12:00:12;;;;;;;0.10;0.10;;;;;;;;;;5071815;28;20492;-76
2022/04/21 12:08:08;;;;;;;0.00;0.00;;;;;;;;;;5073085;28;20083;-75
2022/04/21 12:10:35;;;;;;;0.10;0.10;;;;;;;;;;5072148;28;20468;-76
2022/04/21 12:13:02;;;;;;;0.10;0.10;;;;;;;;;;5072930;28;20039;-77
2022/04/21 12:15:29;;;;;;;0.10;0.10;;;;;;;;;;5073901;28;20028;-77
2022/04/21 12:17:59;;;;;;;0.10;0.10;;;;;;;;;;5072011;28;20025;-76
2022/04/21 12:20:25;;;;;;;0.10;0.10;;;;;;;;;;5073588;28;20439;-77
2022/04/21 12:22:51;;;;;;;0.10;0.10;;;;;;;;;;5071941;28;20033;-77
2022/04/21 12:25:17;;;;;;;0.10;0.10;;;;;;;;;;5073697;28;20021;-77
2022/04/21 12:27:44;;;;;;;0.10;0.10;;;;;;;;;;5073630;28;20032;-79
2022/04/21 12:30:15;;;;;;;0.10;0.10;;;;;;;;;;5075069;28;20484;-77
2022/04/21 12:32:50;;;;;;;0.10;0.10;;;;;;;;;;5073339;28;20021;-77
2022/04/21 12:35:18;;;;;;;0.10;0.10;;;;;;;;;;5073487;28;20051;-77
2022/04/21 12:38:50;;;;;;;0.10;0.10;;;;;;;;;;5072524;28;20047;-76
2022/04/21 12:40:37;;;;;;;0.10;0.10;;;;;;;;;;5071905;28;20119;-77
2022/04/21 12:43:03;;;;;;;0.10;0.10;;;;;;;;;;5071231;28;20446;-77
2022/04/21 12:45:29;;;;;;;0.10;0.10;;;;;;;;;;5073255;28;20025;-78
2022/04/21 12:47:58;;;;;;;0.10;0.10;;;;;;;;;;5071254;28;20115;-78
2022/04/21 12:50:25;;;;;;;0.10;0.10;;;;;;;;;;5073176;28;20020;-78
2022/04/21 12:52:51;;;;;;;0.10;0.10;;;;;;;;;;5068781;28;20404;-77
2022/04/21 12:55:20;;;;;;;0.10;0.10;;;;;;;;;;5071123;28;20025;-78
2022/04/21 12:58:05;;;;;;;0.10;0.10;;;;;;;;;;5071933;28;20029;-79
2022/04/21 13:00:32;;;;;;;0.10;0.10;;;;;;;;;;5068784;28;20057;-78
2022/04/21 13:03:00;;;;;;;0.10;0.10;;;;;;;;;;5070763;28;20035;-79
2022/04/21 13:05:26;;;;;;;0.10;0.10;;;;;;;;;;5072494;28;20028;-79
2022/04/21 13:07:52;;;;;;;0.10;0.10;;;;;;;;;;5073003;28;20411;-80
2022/04/21 13:10:21;;;;;;;0.10;0.10;;;;;;;;;;5073000;28;20082;-79
2022/04/21 13:12:47;;;;;;;0.10;0.10;;;;;;;;;;5070942;28;20012;-80
2022/04/21 13:15:13;;;;;;;0.13;0.13;;;;;;;;;;5088545;28;20028;-80
2022/04/21 13:17:42;;;;;;;0.10;0.10;;;;;;;;;;5071446;28;20029;-80
2022/04/21 13:21:52;;;;;;;0.10;0.10;;;;;;;;;;5071197;28;20082;-80
2022/04/21 13:22:57;;;;;;;0.10;0.10;;;;;;;;;;5070420;28;20116;-78
2022/04/21 13:25:24;;;;;;;0.10;0.10;;;;;;;;;;5072902;28;20426;-79
2022/04/21 13:27:50;;;;;;;0.10;0.10;;;;;;;;;;5071923;28;20021;-78
2022/04/21 13:30:16;;;;;;;0.10;0.10;;;;;;;;;;5070843;28;20028;-79
2022/04/21 13:35:29;;;;;;;0.10;0.10;;;;;;;;;;5071732;28;20090;-79
2022/04/21 13:37:55;;;;;;;0.10;0.10;;;;;;;;;;5068846;28;20507;-78
2022/04/21 13:40:22;;;;;;;0.10;0.10;;;;;;;;;;5071667;28;20102;-77
2022/04/21 13:42:48;;;;;;;0.10;0.10;;;;;;;;;;5070456;28;20059;-78
2022/04/21 13:45:15;;;;;;;0.10;0.10;;;;;;;;;;5070614;28;20020;-78
2022/04/21 13:47:41;;;;;;;0.10;0.10;;;;;;;;;;5071334;28;20040;-78
2022/04/21 13:50:07;;;;;;;0.10;0.10;;;;;;;;;;5070946;28;20021;-77
2022/04/21 13:52:35;;;;;;;0.10;0.10;;;;;;;;;;5072015;28;20467;-77
2022/04/21 13:55:01;;;;;;;0.10;0.10;;;;;;;;;;5070763;28;20502;-78
2022/04/21 13:57:27;;;;;;;0.10;0.10;;;;;;;;;;5070458;28;20107;-78
2022/04/21 13:59:53;;;;;;;0.10;0.10;;;;;;;;;;5070082;28;20036;-78
2022/04/21 14:02:19;;;;;;;0.10;0.10;;;;;;;;;;5070201;28;20377;-78
2022/04/21 14:04:45;;;;;;;0.10;0.10;;;;;;;;;;5070956;28;20027;-77
2022/04/21 14:07:11;;;;;;;0.10;0.10;;;;;;;;;;5071705;28;20028;-77
2022/04/21 14:09:37;;;;;;;0.10;0.10;;;;;;;;;;5071369;28;20024;-76
2022/04/21 14:12:03;;;;;;;0.10;0.10;;;;;;;;;;5070243;28;20105;-76
2022/04/21 14:14:30;;;;;;;0.10;0.10;;;;;;;;;;5069958;28;20070;-76
2022/04/21 14:16:56;;;;;;;0.10;0.10;;;;;;;;;;5071269;28;20055;-76
2022/04/21 14:19:22;;;;;;;0.10;0.10;;;;;;;;;;5071346;28;20068;-76
2022/04/21 14:21:48;;;;;;;0.10;0.10;;;;;;;;;;5069741;28;20070;-76
2022/04/21 14:24:14;;;;;;;0.00;0.00;;;;;;;;;;5071258;28;20472;-76
2022/04/21 14:26:40;;;;;;;0.10;0.10;;;;;;;;;;5071154;28;20078;-76
2022/04/21 14:29:06;;;;;;;0.10;0.10;;;;;;;;;;5071389;28;20024;-76
2022/04/21 14:31:32;;;;;;;0.10;0.10;;;;;;;;;;5071547;28;20420;-76
2022/04/21 14:33:58;;;;;;;0.10;0.10;;;;;;;;;;5071693;28;20472;-76
2022/04/21 14:36:24;;;;;;;0.10;0.10;;;;;;;;;;5071288;28;20032;-76
2022/04/21 14:44:20;;;;;;;0.10;0.10;;;;;;;;;;5071299;28;20078;-76
2022/04/21 14:46:49;;;;;;;0.10;0.10;;;;;;;;;;5069604;28;20111;-76
2022/04/21 14:49:19;;;;;;;0.10;0.10;;;;;;;;;;5071164;28;20036;-76
2022/04/21 14:51:46;;;;;;;0.10;0.10;;;;;;;;;;5070904;28;20480;-76
2022/04/21 14:54:12;;;;;;;0.10;0.10;;;;;;;;;;5070978;28;20095;-76
2022/04/21 14:56:40;;;;;;;7.82;7.03;;;;;;;;;;5070580;28;20059;-76
2022/04/21 14:59:09;;;;;;;0.10;0.10;;;;;;;;;;5069678;28;20029;-75
2022/04/21 15:01:37;;;;;;;0.10;0.10;;;;;;;;;;5069401;28;20043;-74
2022/04/21 15:04:04;;;;;;;0.10;0.10;;;;;;;;;;5066997;28;20105;-76
2022/04/21 15:06:29;;;;;;;0.10;0.10;;;;;;;;;;5068072;28;20487;-76
2022/04/21 15:08:55;;;;;;;0.10;0.10;;;;;;;;;;5068902;28;20060;-76
2022/04/21 15:11:22;;;;;;;0.10;0.10;;;;;;;;;;5069288;28;20017;-76
2022/04/21 15:13:48;;;;;;;0.10;0.10;;;;;;;;;;5068954;28;20500;-76
2022/04/21 15:16:14;;;;;;;0.10;0.10;;;;;;;;;;5069262;28;20044;-75
2022/04/21 15:18:40;;;;;;;0.10;0.10;;;;;;;;;;5068988;28;20441;-76
2022/04/21 15:21:06;;;;;;;0.10;0.10;;;;;;;;;;5069250;28;20495;-76
2022/04/21 15:23:32;;;;;;;0.10;0.10;;;;;;;;;;5069420;28;20028;-76
2022/04/21 15:25:59;;;;;;;0.10;0.10;;;;;;;;;;5071401;28;20040;-76
2022/04/21 15:28:25;;;;;;;0.10;0.10;;;;;;;;;;5071930;28;20040;-76
2022/04/21 15:30:51;;;;;;;0.20;0.20;;;;;;;;;;5072835;28;20044;-76
2022/04/21 15:33:17;;;;;;;0.10;0.10;;;;;;;;;;5073786;28;20040;-77
2022/04/21 15:35:44;;;;;;;0.10;0.10;;;;;;;;;;5074294;28;20027;-77
2022/04/21 15:38:15;;;;;;;0.10;0.10;;;;;;;;;;5074313;28;20029;-76
2022/04/21 15:40:41;;;;;;;0.10;0.10;;;;;;;;;;5074309;28;20426;-76